< Cyclone 197911 1980 Season Cyclone 198003 >
Cyclone 198002 (VIOLA)
General InformationTrack Information on Google Maps || ResourceGoogle EarthGE AnimationAtom FeedGeoJSON
Detalied Best Track (Time Zone = UTC)
Year Month Day Hour Lat. Long. Pressure (hPa) Wind (kt) Class Image Chart
1979 12 9 00 -7.9 93.0 1006 0 0 -- --
1979 12 9 06 -8.1 92.9 1005 0 0 -- --
1979 12 9 12 -8.3 92.9 1005 0 0 -- --
1979 12 9 18 -8.5 92.8 1004 0 0 -- --
1979 12 10 00 -8.7 92.8 1004 0 0 -- --
1979 12 10 06 -8.9 92.7 1003 0 0 -- --
1979 12 10 12 -9.1 92.6 1001 0 0 -- --
1979 12 10 18 -9.3 92.5 1000 0 0 -- --
1979 12 11 00 -9.5 92.4 998 0 0 -- --
1979 12 11 06 -9.8 92.2 996 0 0 -- --
1979 12 11 12 -10.1 91.8 994 0 0 -- --
1979 12 11 18 -10.4 91.4 991 0 0 -- --
1979 12 12 00 -10.6 90.9 988 0 0 -- --
1979 12 12 06 -10.6 90.3 987 0 0 -- --
1979 12 12 12 -10.5 89.8 985 0 0 -- --
1979 12 12 18 -10.2 89.2 984 0 0 -- --
1979 12 13 00 -10.1 88.6 982 0 0 -- --
1979 12 13 06 -9.9 88.3 980 0 0 -- --
1979 12 13 12 -9.7 87.9 978 0 0 -- --
1979 12 13 18 -9.6 87.7 976 0 0 -- --
1979 12 14 00 -9.4 87.3 975 0 0 -- --
1979 12 14 06 -9.3 87.0 973 0 0 -- --
1979 12 14 12 -9.1 86.8 970 0 0 -- --
1979 12 14 18 -9.1 86.7 968 0 0 -- --
1979 12 15 00 -9.0 86.5 965 0 0 -- --
1979 12 15 06 -9.0 86.2 963 0 0 -- --
1979 12 15 12 -9.0 85.9 960 0 0 -- --
1979 12 15 18 -9.1 85.7 958 0 0 -- --
1979 12 16 00 -9.3 85.4 955 0 0 -- --
1979 12 16 06 -9.5 85.0 948 0 0 -- --
1979 12 16 12 -9.9 84.6 940 0 0 -- --
1979 12 16 18 -10.2 84.1 930 0 0 -- --
1979 12 17 00 -10.5 83.5 931 0 0 -- --
1979 12 17 06 -10.8 82.8 932 0 0 -- --
1979 12 17 12 -11.0 82.0 933 0 0 -- --
1979 12 17 18 -11.2 81.3 935 0 0 -- --
1979 12 18 00 -11.5 80.4 936 0 0 -- --
1979 12 18 06 -11.7 79.5 938 0 0 -- --
1979 12 18 12 -11.9 78.4 939 0 0 -- --
1979 12 18 18 -12.0 77.5 941 0 0 -- --
1979 12 19 00 -12.1 76.4 942 0 0 -- --
< Cyclone 197911 1980 Season Cyclone 198003 >

Help